sensor_id;sensor_type;location;lat;lon;timestamp;pressure;altitude;pressure_sealevel;temperature
6550;BMP280;15142;48.888;9.134;2023-04-03T00:01:28;98837.88;;;4.52
6550;BMP280;15142;48.888;9.134;2023-04-03T00:03:56;98834.78;;;4.50
6550;BMP280;15142;48.888;9.134;2023-04-03T00:06:25;98831.13;;;4.46
6550;BMP280;15142;48.888;9.134;2023-04-03T00:08:54;98830.00;;;4.43
6550;BMP280;15142;48.888;9.134;2023-04-03T00:11:25;98828.94;;;4.32
6550;BMP280;15142;48.888;9.134;2023-04-03T00:13:54;98826.63;;;4.31
6550;BMP280;15142;48.888;9.134;2023-04-03T00:16:22;98829.31;;;4.36
6550;BMP280;15142;48.888;9.134;2023-04-03T00:18:51;98832.59;;;4.36
6550;BMP280;15142;48.888;9.134;2023-04-03T00:21:19;98840.13;;;4.43
6550;BMP280;15142;48.888;9.134;2023-04-03T00:23:48;98837.16;;;4.46
6550;BMP280;15142;48.888;9.134;2023-04-03T00:26:16;98829.44;;;4.41
6550;BMP280;15142;48.888;9.134;2023-04-03T00:28:48;98822.34;;;4.31
6550;BMP280;15142;48.888;9.134;2023-04-03T00:31:16;98829.75;;;4.26
6550;BMP280;15142;48.888;9.134;2023-04-03T00:33:45;98834.47;;;4.23
6550;BMP280;15142;48.888;9.134;2023-04-03T00:36:14;98837.44;;;4.20
6550;BMP280;15142;48.888;9.134;2023-04-03T00:38:42;98830.22;;;4.23
6550;BMP280;15142;48.888;9.134;2023-04-03T00:41:12;98832.28;;;4.26
6550;BMP280;15142;48.888;9.134;2023-04-03T00:43:41;98829.69;;;4.33
6550;BMP280;15142;48.888;9.134;2023-04-03T00:46:13;98827.81;;;4.28
6550;BMP280;15142;48.888;9.134;2023-04-03T00:48:43;98830.97;;;4.24
6550;BMP280;15142;48.888;9.134;2023-04-03T00:51:14;98822.28;;;4.20
6550;BMP280;15142;48.888;9.134;2023-04-03T00:53:48;98819.66;;;4.26
6550;BMP280;15142;48.888;9.134;2023-04-03T00:56:19;98829.41;;;4.23
6550;BMP280;15142;48.888;9.134;2023-04-03T00:58:52;98824.78;;;4.20
6550;BMP280;15142;48.888;9.134;2023-04-03T01:01:27;98826.31;;;4.21
6550;BMP280;15142;48.888;9.134;2023-04-03T01:03:58;98820.75;;;4.19
6550;BMP280;15142;48.888;9.134;2023-04-03T01:06:32;98825.78;;;4.19
6550;BMP280;15142;48.888;9.134;2023-04-03T01:09:06;98821.69;;;4.18
6550;BMP280;15142;48.888;9.134;2023-04-03T01:11:35;98822.69;;;4.17
6550;BMP280;15142;48.888;9.134;2023-04-03T01:14:04;98818.66;;;4.10
6550;BMP280;15142;48.888;9.134;2023-04-03T01:16:35;98813.69;;;4.03
6550;BMP280;15142;48.888;9.134;2023-04-03T01:19:08;98815.19;;;4.04
6550;BMP280;15142;48.888;9.134;2023-04-03T01:21:55;98814.56;;;4.09
6550;BMP280;15142;48.888;9.134;2023-04-03T01:24:32;98818.28;;;4.06
6550;BMP280;15142;48.888;9.134;2023-04-03T01:27:06;98819.44;;;4.10
6550;BMP280;15142;48.888;9.134;2023-04-03T01:29:36;98808.75;;;4.08
6550;BMP280;15142;48.888;9.134;2023-04-03T01:32:08;98818.28;;;4.06
6550;BMP280;15142;48.888;9.134;2023-04-03T01:34:37;98820.53;;;3.96
6550;BMP280;15142;48.888;9.134;2023-04-03T01:37:06;98817.19;;;4.02
6550;BMP280;15142;48.888;9.134;2023-04-03T01:39:35;98826.72;;;4.00
6550;BMP280;15142;48.888;9.134;2023-04-03T01:42:03;98828.47;;;4.00
6550;BMP280;15142;48.888;9.134;2023-04-03T01:44:39;98826.56;;;3.95
6550;BMP280;15142;48.888;9.134;2023-04-03T01:47:11;98833.00;;;3.91
6550;BMP280;15142;48.888;9.134;2023-04-03T01:49:40;98827.53;;;3.94
6550;BMP280;15142;48.888;9.134;2023-04-03T01:52:09;98832.78;;;3.93
6550;BMP280;15142;48.888;9.134;2023-04-03T01:54:38;98823.66;;;3.92
6550;BMP280;15142;48.888;9.134;2023-04-03T01:57:07;98837.06;;;3.92
6550;BMP280;15142;48.888;9.134;2023-04-03T01:59:36;98833.19;;;3.90
6550;BMP280;15142;48.888;9.134;2023-04-03T02:02:06;98842.53;;;3.89
6550;BMP280;15142;48.888;9.134;2023-04-03T02:04:38;98842.09;;;3.92
6550;BMP280;15142;48.888;9.134;2023-04-03T02:07:07;98839.44;;;3.87
6550;BMP280;15142;48.888;9.134;2023-04-03T02:09:35;98839.44;;;3.87
6550;BMP280;15142;48.888;9.134;2023-04-03T02:12:04;98845.63;;;3.91
6550;BMP280;15142;48.888;9.134;2023-04-03T02:14:33;98837.22;;;3.97
6550;BMP280;15142;48.888;9.134;2023-04-03T02:17:02;98835.84;;;4.01
6550;BMP280;15142;48.888;9.134;2023-04-03T02:19:34;98846.53;;;4.03
6550;BMP280;15142;48.888;9.134;2023-04-03T02:22:06;98846.72;;;4.02
6550;BMP280;15142;48.888;9.134;2023-04-03T02:24:35;98847.47;;;4.02
6550;BMP280;15142;48.888;9.134;2023-04-03T02:27:04;98845.97;;;3.95
6550;BMP280;15142;48.888;9.134;2023-04-03T02:29:33;98844.81;;;3.97
6550;BMP280;15142;48.888;9.134;2023-04-03T02:32:03;98840.91;;;4.01
6550;BMP280;15142;48.888;9.134;2023-04-03T02:34:33;98840.31;;;3.99
6550;BMP280;15142;48.888;9.134;2023-04-03T02:37:02;98846.34;;;3.98
6550;BMP280;15142;48.888;9.134;2023-04-03T02:39:33;98849.88;;;3.91
6550;BMP280;15142;48.888;9.134;2023-04-03T02:42:02;98845.63;;;3.91
6550;BMP280;15142;48.888;9.134;2023-04-03T02:44:32;98850.09;;;3.89
6550;BMP280;15142;48.888;9.134;2023-04-03T02:47:01;98834.56;;;3.86
6550;BMP280;15142;48.888;9.134;2023-04-03T02:49:30;98849.28;;;3.95
6550;BMP280;15142;48.888;9.134;2023-04-03T02:51:58;98841.72;;;3.95
6550;BMP280;15142;48.888;9.134;2023-04-03T02:54:27;98845.97;;;3.95
6550;BMP280;15142;48.888;9.134;2023-04-03T02:57:03;98838.97;;;3.97
6550;BMP280;15142;48.888;9.134;2023-04-03T02:59:33;98849.06;;;3.97
6550;BMP280;15142;48.888;9.134;2023-04-03T03:02:02;98846.34;;;3.98
6550;BMP280;15142;48.888;9.134;2023-04-03T03:04:31;98849.47;;;3.94
6550;BMP280;15142;48.888;9.134;2023-04-03T03:07:00;98834.38;;;3.87
6550;BMP280;15142;48.888;9.134;2023-04-03T03:09:29;98845.19;;;3.94
6550;BMP280;15142;48.888;9.134;2023-04-03T03:11:58;98837.81;;;3.93
6550;BMP280;15142;48.888;9.134;2023-04-03T03:14:31;98839.75;;;3.97
6550;BMP280;15142;48.888;9.134;2023-04-03T03:17:01;98835.53;;;3.91
6550;BMP280;15142;48.888;9.134;2023-04-03T03:19:30;98835.53;;;3.91
6550;BMP280;15142;48.888;9.134;2023-04-03T03:21:58;98834.72;;;3.91
6550;BMP280;15142;48.888;9.134;2023-04-03T03:24:27;98823.84;;;3.90
6550;BMP280;15142;48.888;9.134;2023-04-03T03:26:56;98830.25;;;3.93
6550;BMP280;15142;48.888;9.134;2023-04-03T03:29:25;98830.03;;;3.94
6550;BMP280;15142;48.888;9.134;2023-04-03T03:31:56;98818.75;;;3.97
6550;BMP280;15142;48.888;9.134;2023-04-03T03:34:25;98825.41;;;3.91
6550;BMP280;15142;48.888;9.134;2023-04-03T03:36:54;98827.94;;;3.91
6550;BMP280;15142;48.888;9.134;2023-04-03T03:39:23;98821.13;;;3.92
6550;BMP280;15142;48.888;9.134;2023-04-03T03:41:52;98823.84;;;3.90
6550;BMP280;15142;48.888;9.134;2023-04-03T03:44:21;98811.09;;;3.85
6550;BMP280;15142;48.888;9.134;2023-04-03T03:46:50;98826.56;;;3.95
6550;BMP280;15142;48.888;9.134;2023-04-03T03:49:21;98824.94;;;4.01
6550;BMP280;15142;48.888;9.134;2023-04-03T03:51:50;98832.56;;;3.94
6550;BMP280;15142;48.888;9.134;2023-04-03T03:54:20;98828.09;;;3.96
6550;BMP280;15142;48.888;9.134;2023-04-03T03:56:49;98833.72;;;3.98
6550;BMP280;15142;48.888;9.134;2023-04-03T03:59:18;98830.00;;;4.01
6550;BMP280;15142;48.888;9.134;2023-04-03T04:01:47;98839.91;;;4.02
6550;BMP280;15142;48.888;9.134;2023-04-03T04:04:16;98824.91;;;4.07
6550;BMP280;15142;48.888;9.134;2023-04-03T04:06:48;98850.66;;;4.15
6550;BMP280;15142;48.888;9.134;2023-04-03T04:09:17;98843.50;;;4.13
6550;BMP280;15142;48.888;9.134;2023-04-03T04:11:47;98839.63;;;4.10
6550;BMP280;15142;48.888;9.134;2023-04-03T04:14:17;98834.94;;;4.13
6550;BMP280;15142;48.888;9.134;2023-04-03T04:16:46;98843.88;;;4.16
6550;BMP280;15142;48.888;9.134;2023-04-03T04:19:20;98843.72;;;4.11
6550;BMP280;15142;48.888;9.134;2023-04-03T04:21:51;98846.25;;;4.11
6550;BMP280;15142;48.888;9.134;2023-04-03T04:24:21;98838.16;;;4.03
6550;BMP280;15142;48.888;9.134;2023-04-03T04:26:53;98843.53;;;4.06
6550;BMP280;15142;48.888;9.134;2023-04-03T04:29:22;98837.31;;;4.09
6550;BMP280;15142;48.888;9.134;2023-04-03T04:31:51;98826.25;;;4.10
6550;BMP280;15142;48.888;9.134;2023-04-03T04:34:21;98833.09;;;4.03
6550;BMP280;15142;48.888;9.134;2023-04-03T04:36:52;98838.56;;;4.00
6550;BMP280;15142;48.888;9.134;2023-04-03T04:39:22;98843.19;;;4.03
6550;BMP280;15142;48.888;9.134;2023-04-03T04:41:52;98846.53;;;4.03
6550;BMP280;15142;48.888;9.134;2023-04-03T04:44:21;98827.19;;;4.09
6550;BMP280;15142;48.888;9.134;2023-04-03T04:46:49;98839.06;;;4.08
6550;BMP280;15142;48.888;9.134;2023-04-03T04:49:20;98841.00;;;4.06
6550;BMP280;15142;48.888;9.134;2023-04-03T04:51:51;98846.84;;;4.07
6550;BMP280;15142;48.888;9.134;2023-04-03T04:54:26;98845.66;;;4.09
6550;BMP280;15142;48.888;9.134;2023-04-03T04:56:56;98844.28;;;4.13
6550;BMP280;15142;48.888;9.134;2023-04-03T04:59:26;98833.03;;;4.09
6550;BMP280;15142;48.888;9.134;2023-04-03T05:01:57;98851.56;;;4.03
6550;BMP280;15142;48.888;9.134;2023-04-03T05:04:27;98852.53;;;4.02
6550;BMP280;15142;48.888;9.134;2023-04-03T05:07:05;98863.34;;;4.09
6550;BMP280;15142;48.888;9.134;2023-04-03T05:09:35;98859.91;;;4.04
6550;BMP280;15142;48.888;9.134;2023-04-03T05:12:07;98861.09;;;4.01
6550;BMP280;15142;48.888;9.134;2023-04-03T05:14:41;98859.38;;;3.95
6550;BMP280;15142;48.888;9.134;2023-04-03T05:17:10;98853.75;;;3.93
6550;BMP280;15142;48.888;9.134;2023-04-03T05:19:44;98863.88;;;3.87
6550;BMP280;15142;48.888;9.134;2023-04-03T05:22:17;98855.41;;;3.81
6550;BMP280;15142;48.888;9.134;2023-04-03T05:24:46;98863.59;;;3.77
6550;BMP280;15142;48.888;9.134;2023-04-03T05:27:15;98859.88;;;3.80
6550;BMP280;15142;48.888;9.134;2023-04-03T05:29:52;98870.09;;;3.84
6550;BMP280;15142;48.888;9.134;2023-04-03T05:32:23;98865.06;;;3.84
6550;BMP280;15142;48.888;9.134;2023-04-03T05:35:05;98865.50;;;3.81
6550;BMP280;15142;48.888;9.134;2023-04-03T05:37:37;98862.22;;;3.75
6550;BMP280;15142;48.888;9.134;2023-04-03T05:40:08;98861.88;;;3.65
6550;BMP280;15142;48.888;9.134;2023-04-03T05:42:40;98867.91;;;3.64
6550;BMP280;15142;48.888;9.134;2023-04-03T05:45:11;98866.81;;;3.60
6550;BMP280;15142;48.888;9.134;2023-04-03T05:47:39;98870.44;;;3.64
6550;BMP280;15142;48.888;9.134;2023-04-03T05:50:09;98874.13;;;3.68
6550;BMP280;15142;48.888;9.134;2023-04-03T05:52:43;98880.69;;;3.75
6550;BMP280;15142;48.888;9.134;2023-04-03T05:55:14;98874.66;;;3.76
6550;BMP280;15142;48.888;9.134;2023-04-03T05:57:43;98879.50;;;3.78
6550;BMP280;15142;48.888;9.134;2023-04-03T06:00:14;98894.97;;;3.87
6550;BMP280;15142;48.888;9.134;2023-04-03T06:02:50;98882.53;;;3.86
6550;BMP280;15142;48.888;9.134;2023-04-03T06:05:23;98890.69;;;3.88
6550;BMP280;15142;48.888;9.134;2023-04-03T06:07:54;98881.72;;;3.92
6550;BMP280;15142;48.888;9.134;2023-04-03T06:10:24;98889.56;;;4.08
6550;BMP280;15142;48.888;9.134;2023-04-03T06:12:53;98887.25;;;4.07
6550;BMP280;15142;48.888;9.134;2023-04-03T06:15:23;98893.66;;;4.09
6550;BMP280;15142;48.888;9.134;2023-04-03T06:17:51;98903.44;;;3.99
6550;BMP280;15142;48.888;9.134;2023-04-03T06:20:21;98887.97;;;3.89
6550;BMP280;15142;48.888;9.134;2023-04-03T06:22:50;98891.06;;;3.85
6550;BMP280;15142;48.888;9.134;2023-04-03T06:25:21;98894.97;;;3.87
6550;BMP280;15142;48.888;9.134;2023-04-03T06:27:51;98905.19;;;3.99
6550;BMP280;15142;48.888;9.134;2023-04-03T06:30:21;98907.50;;;4.00
6550;BMP280;15142;48.888;9.134;2023-04-03T06:32:50;98903.34;;;4.12
6550;BMP280;15142;48.888;9.134;2023-04-03T06:35:18;98916.97;;;4.29
6550;BMP280;15142;48.888;9.134;2023-04-03T06:37:49;98911.88;;;4.42
6550;BMP280;15142;48.888;9.134;2023-04-03T06:40:23;98912.69;;;4.36
6550;BMP280;15142;48.888;9.134;2023-04-03T06:42:52;98908.25;;;4.25
6550;BMP280;15142;48.888;9.134;2023-04-03T06:45:21;98905.91;;;4.30
6550;BMP280;15142;48.888;9.134;2023-04-03T06:47:51;98910.88;;;4.18
6550;BMP280;15142;48.888;9.134;2023-04-03T06:50:20;98914.13;;;4.25
6550;BMP280;15142;48.888;9.134;2023-04-03T06:52:48;98929.28;;;4.25
6550;BMP280;15142;48.888;9.134;2023-04-03T06:55:17;98919.00;;;4.20
6550;BMP280;15142;48.888;9.134;2023-04-03T06:57:52;98929.03;;;4.33
6550;BMP280;15142;48.888;9.134;2023-04-03T07:00:21;98920.75;;;4.44
6550;BMP280;15142;48.888;9.134;2023-04-03T07:02:50;98915.88;;;4.49
6550;BMP280;15142;48.888;9.134;2023-04-03T07:05:18;98931.94;;;4.54
6550;BMP280;15142;48.888;9.134;2023-04-03T07:07:47;98924.63;;;4.46
6550;BMP280;15142;48.888;9.134;2023-04-03T07:10:16;98932.41;;;4.69
6550;BMP280;15142;48.888;9.134;2023-04-03T07:12:44;98939.47;;;4.61
6550;BMP280;15142;48.888;9.134;2023-04-03T07:15:16;98937.25;;;4.46
6550;BMP280;15142;48.888;9.134;2023-04-03T07:17:44;98931.13;;;4.60
6550;BMP280;15142;48.888;9.134;2023-04-03T07:20:14;98942.53;;;4.63
6550;BMP280;15142;48.888;9.134;2023-04-03T07:22:42;98944.88;;;4.64
6550;BMP280;15142;48.888;9.134;2023-04-03T07:25:11;98942.00;;;4.85
6550;BMP280;15142;48.888;9.134;2023-04-03T07:27:39;98953.13;;;4.60
6550;BMP280;15142;48.888;9.134;2023-04-03T07:30:09;98949.53;;;4.67
6550;BMP280;15142;48.888;9.134;2023-04-03T07:32:42;98955.19;;;4.63
6550;BMP280;15142;48.888;9.134;2023-04-03T07:35:11;98954.78;;;4.66
6550;BMP280;15142;48.888;9.134;2023-04-03T07:37:39;98953.47;;;4.63
6550;BMP280;15142;48.888;9.134;2023-04-03T07:40:09;98952.97;;;4.73
6550;BMP280;15142;48.888;9.134;2023-04-03T07:42:38;98963.56;;;4.87
6550;BMP280;15142;48.888;9.134;2023-04-03T07:45:08;98950.72;;;4.89
6550;BMP280;15142;48.888;9.134;2023-04-03T07:47:37;98955.75;;;5.07
6550;BMP280;15142;48.888;9.134;2023-04-03T07:50:09;98963.41;;;5.18
6550;BMP280;15142;48.888;9.134;2023-04-03T07:52:37;98968.09;;;5.50
6550;BMP280;15142;48.888;9.134;2023-04-03T07:55:07;98977.38;;;5.56
6550;BMP280;15142;48.888;9.134;2023-04-03T07:57:36;98975.38;;;5.46
6550;BMP280;15142;48.888;9.134;2023-04-03T08:00:07;98970.09;;;5.77
6550;BMP280;15142;48.888;9.134;2023-04-03T08:02:40;98973.19;;;5.79
6550;BMP280;15142;48.888;9.134;2023-04-03T08:05:12;98975.81;;;5.73
6550;BMP280;15142;48.888;9.134;2023-04-03T08:07:40;98975.75;;;5.90
6550;BMP280;15142;48.888;9.134;2023-04-03T08:10:10;98971.69;;;5.89
6550;BMP280;15142;48.888;9.134;2023-04-03T08:12:38;98978.78;;;5.99
6550;BMP280;15142;48.888;9.134;2023-04-03T08:15:08;98973.88;;;6.38
6550;BMP280;15142;48.888;9.134;2023-04-03T08:17:36;98971.56;;;6.47
6550;BMP280;15142;48.888;9.134;2023-04-03T08:20:07;98975.53;;;6.55
6550;BMP280;15142;48.888;9.134;2023-04-03T08:22:38;98974.44;;;6.51
6550;BMP280;15142;48.888;9.134;2023-04-03T08:25:08;98968.84;;;6.49
6550;BMP280;15142;48.888;9.134;2023-04-03T08:27:37;98975.09;;;6.58
6550;BMP280;15142;48.888;9.134;2023-04-03T08:30:07;98977.50;;;6.42
6550;BMP280;15142;48.888;9.134;2023-04-03T08:32:37;98978.84;;;6.44
6550;BMP280;15142;48.888;9.134;2023-04-03T08:35:08;98975.41;;;6.39
6550;BMP280;15142;48.888;9.134;2023-04-03T08:37:39;98967.94;;;6.43
6550;BMP280;15142;48.888;9.134;2023-04-03T08:40:14;98965.75;;;6.58
6550;BMP280;15142;48.888;9.134;2023-04-03T08:42:53;98966.38;;;6.31
6550;BMP280;15142;48.888;9.134;2023-04-03T08:45:37;98973.88;;;6.38
6550;BMP280;15142;48.888;9.134;2023-04-03T08:48:12;98974.88;;;6.82
6550;BMP280;15142;48.888;9.134;2023-04-03T08:50:46;98973.16;;;7.21
6550;BMP280;15142;48.888;9.134;2023-04-03T08:53:21;98973.06;;;7.16
6550;BMP280;15142;48.888;9.134;2023-04-03T08:55:53;98973.25;;;7.26
6550;BMP280;15142;48.888;9.134;2023-04-03T08:58:23;98971.69;;;7.25
6550;BMP280;15142;48.888;9.134;2023-04-03T09:00:57;98975.84;;;7.04
6550;BMP280;15142;48.888;9.134;2023-04-03T09:03:29;98976.84;;;7.03
6550;BMP280;15142;48.888;9.134;2023-04-03T09:06:02;98982.91;;;7.02
6550;BMP280;15142;48.888;9.134;2023-04-03T09:08:37;98970.06;;;7.19
6550;BMP280;15142;48.888;9.134;2023-04-03T09:11:13;98979.94;;;7.05
6550;BMP280;15142;48.888;9.134;2023-04-03T09:13:48;98971.50;;;7.15
6550;BMP280;15142;48.888;9.134;2023-04-03T09:16:27;98975.97;;;7.08
6550;BMP280;15142;48.888;9.134;2023-04-03T09:19:04;98981.53;;;7.22
6550;BMP280;15142;48.888;9.134;2023-04-03T09:21:38;98967.50;;;7.31
6550;BMP280;15142;48.888;9.134;2023-04-03T09:24:12;98973.22;;;7.38
6550;BMP280;15142;48.888;9.134;2023-04-03T09:26:44;98973.41;;;7.47
6550;BMP280;15142;48.888;9.134;2023-04-03T09:29:18;98976.94;;;7.46
6550;BMP280;15142;48.888;9.134;2023-04-03T09:31:49;98971.09;;;7.46
6550;BMP280;15142;48.888;9.134;2023-04-03T09:34:22;98971.72;;;7.64
6550;BMP280;15142;48.888;9.134;2023-04-03T09:36:53;98969.16;;;7.64
6550;BMP280;15142;48.888;9.134;2023-04-03T09:39:29;98968.63;;;7.78
6550;BMP280;15142;48.888;9.134;2023-04-03T09:42:00;98968.88;;;7.93
6550;BMP280;15142;48.888;9.134;2023-04-03T09:44:31;98971.81;;;7.85
6550;BMP280;15142;48.888;9.134;2023-04-03T09:47:17;98969.56;;;7.72
6550;BMP280;15142;48.888;9.134;2023-04-03T09:49:46;98965.78;;;7.91
6550;BMP280;15142;48.888;9.134;2023-04-03T09:52:19;98970.97;;;7.52
6550;BMP280;15142;48.888;9.134;2023-04-03T09:54:50;98966.75;;;7.30
6550;BMP280;15142;48.888;9.134;2023-04-03T09:57:19;98963.00;;;7.33
6550;BMP280;15142;48.888;9.134;2023-04-03T09:59:56;98956.69;;;7.24
6550;BMP280;15142;48.888;9.134;2023-04-03T10:02:34;98956.34;;;7.32
6550;BMP280;15142;48.888;9.134;2023-04-03T10:05:04;98962.41;;;7.42
6550;BMP280;15142;48.888;9.134;2023-04-03T10:07:52;98963.00;;;7.33
6550;BMP280;15142;48.888;9.134;2023-04-03T10:10:25;98958.88;;;7.32
6550;BMP280;15142;48.888;9.134;2023-04-03T10:13:04;98955.31;;;7.16
6550;BMP280;15142;48.888;9.134;2023-04-03T10:15:36;98956.13;;;7.33
6550;BMP280;15142;48.888;9.134;2023-04-03T10:18:19;98947.91;;;7.54
6550;BMP280;15142;48.888;9.134;2023-04-03T10:20:54;98954.13;;;7.35
6550;BMP280;15142;48.888;9.134;2023-04-03T10:23:30;98946.88;;;7.16
6550;BMP280;15142;48.888;9.134;2023-04-03T10:26:09;98944.56;;;7.53
6550;BMP280;15142;48.888;9.134;2023-04-03T10:28:45;98946.94;;;7.60
6550;BMP280;15142;48.888;9.134;2023-04-03T10:31:22;98945.94;;;7.72
6550;BMP280;15142;48.888;9.134;2023-04-03T10:33:56;98943.00;;;7.80
6550;BMP280;15142;48.888;9.134;2023-04-03T10:36:36;98943.59;;;7.54
6550;BMP280;15142;48.888;9.134;2023-04-03T10:39:15;98930.69;;;7.72
6550;BMP280;15142;48.888;9.134;2023-04-03T10:41:56;98933.22;;;7.72
6550;BMP280;15142;48.888;9.134;2023-04-03T10:44:34;98941.81;;;7.87
6550;BMP280;15142;48.888;9.134;2023-04-03T10:47:11;98935.50;;;7.30
6550;BMP280;15142;48.888;9.134;2023-04-03T10:49:49;98935.59;;;7.35
6550;BMP280;15142;48.888;9.134;2023-04-03T10:52:22;98943.00;;;7.80
6550;BMP280;15142;48.888;9.134;2023-04-03T10:54:59;98936.91;;;7.65
6550;BMP280;15142;48.888;9.134;2023-04-03T10:57:33;98930.94;;;7.59
6550;BMP280;15142;48.888;9.134;2023-04-03T11:00:05;98936.47;;;7.40
6550;BMP280;15142;48.888;9.134;2023-04-03T11:02:37;98932.72;;;7.59
6550;BMP280;15142;48.888;9.134;2023-04-03T11:05:17;98940.69;;;7.78
6550;BMP280;15142;48.888;9.134;2023-04-03T11:07:49;98928.53;;;7.64
6550;BMP280;15142;48.888;9.134;2023-04-03T11:10:23;98935.53;;;7.46
6550;BMP280;15142;48.888;9.134;2023-04-03T11:12:58;98938.38;;;7.49
6550;BMP280;15142;48.888;9.134;2023-04-03T11:15:32;98934.03;;;7.77
6550;BMP280;15142;48.888;9.134;2023-04-03T11:18:04;98925.94;;;7.20
6550;BMP280;15142;48.888;9.134;2023-04-03T11:20:35;98923.59;;;7.30
6550;BMP280;15142;48.888;9.134;2023-04-03T11:23:08;98930.22;;;7.20
6550;BMP280;15142;48.888;9.134;2023-04-03T11:25:43;98929.44;;;7.31
6550;BMP280;15142;48.888;9.134;2023-04-03T11:28:15;98923.94;;;7.22
6550;BMP280;15142;48.888;9.134;2023-04-03T11:30:46;98916.41;;;7.27
6550;BMP280;15142;48.888;9.134;2023-04-03T11:33:31;98924.56;;;7.29
6550;BMP280;15142;48.888;9.134;2023-04-03T11:36:05;98913.81;;;7.22
6550;BMP280;15142;48.888;9.134;2023-04-03T11:38:37;98919.94;;;7.26
6550;BMP280;15142;48.888;9.134;2023-04-03T11:41:08;98920.78;;;7.43
6550;BMP280;15142;48.888;9.134;2023-04-03T11:43:55;98925.94;;;7.48
6550;BMP280;15142;48.888;9.134;2023-04-03T11:46:48;98929.41;;;7.42
6550;BMP280;15142;48.888;9.134;2023-04-03T11:53:00;98911.84;;;7.40
6550;BMP280;15142;48.888;9.134;2023-04-03T11:58:31;98914.53;;;7.23
6550;BMP280;15142;48.888;9.134;2023-04-03T12:01:05;98909.09;;;7.42
6550;BMP280;15142;48.888;9.134;2023-04-03T12:04:06;98913.38;;;7.41
6550;BMP280;15142;48.888;9.134;2023-04-03T12:09:57;98906.38;;;7.32
6550;BMP280;15142;48.888;9.134;2023-04-03T12:12:30;98909.72;;;7.65
6550;BMP280;15142;48.888;9.134;2023-04-03T12:15:24;98899.50;;;7.76
6550;BMP280;15142;48.888;9.134;2023-04-03T12:17:56;98905.28;;;7.72
6550;BMP280;15142;48.888;9.134;2023-04-03T12:20:55;98900.25;;;7.61
6550;BMP280;15142;48.888;9.134;2023-04-03T12:23:28;98902.06;;;7.76
6550;BMP280;15142;48.888;9.134;2023-04-03T12:26:03;98895.47;;;8.13
6550;BMP280;15142;48.888;9.134;2023-04-03T12:28:39;98895.06;;;8.37
6550;BMP280;15142;48.888;9.134;2023-04-03T12:31:10;98886.91;;;8.19
6550;BMP280;15142;48.888;9.134;2023-04-03T12:36:45;98885.22;;;7.59
6550;BMP280;15142;48.888;9.134;2023-04-03T12:39:33;98890.69;;;7.51
6550;BMP280;15142;48.888;9.134;2023-04-03T12:42:16;98888.31;;;7.77
6550;BMP280;15142;48.888;9.134;2023-04-03T12:44:54;98879.63;;;7.90
6550;BMP280;15142;48.888;9.134;2023-04-03T12:47:31;98877.19;;;9.22
6550;BMP280;15142;48.888;9.134;2023-04-03T12:50:13;98894.22;;;10.60
6550;BMP280;15142;48.888;9.134;2023-04-03T12:52:48;98872.56;;;10.21
6550;BMP280;15142;48.888;9.134;2023-04-03T12:55:21;98872.66;;;9.55
6550;BMP280;15142;48.888;9.134;2023-04-03T12:57:50;98865.78;;;8.34
6550;BMP280;15142;48.888;9.134;2023-04-03T13:00:29;98867.19;;;8.09
6550;BMP280;15142;48.888;9.134;2023-04-03T13:02:59;98866.41;;;8.09
6550;BMP280;15142;48.888;9.134;2023-04-03T13:05:32;98870.81;;;8.13
6550;BMP280;15142;48.888;9.134;2023-04-03T13:08:03;98861.84;;;8.06
6550;BMP280;15142;48.888;9.134;2023-04-03T13:10:45;98857.97;;;7.87
6550;BMP280;15142;48.888;9.134;2023-04-03T13:13:15;98861.69;;;7.96
6550;BMP280;15142;48.888;9.134;2023-04-03T13:15:46;98854.13;;;8.01
6550;BMP280;15142;48.888;9.134;2023-04-03T13:18:28;98865.91;;;7.91
6550;BMP280;15142;48.888;9.134;2023-04-03T13:21:03;98850.25;;;7.99
6550;BMP280;15142;48.888;9.134;2023-04-03T13:23:35;98856.84;;;7.95
6550;BMP280;15142;48.888;9.134;2023-04-03T13:26:06;98862.13;;;8.26
6550;BMP280;15142;48.888;9.134;2023-04-03T13:28:35;98858.00;;;8.62
6550;BMP280;15142;48.888;9.134;2023-04-03T13:31:08;98862.53;;;8.81
6550;BMP280;15142;48.888;9.134;2023-04-03T13:33:43;98857.56;;;8.70
6550;BMP280;15142;48.888;9.134;2023-04-03T13:36:26;98853.84;;;8.56
6550;BMP280;15142;48.888;9.134;2023-04-03T13:39:00;98855.47;;;8.67
6550;BMP280;15142;48.888;9.134;2023-04-03T13:41:32;98856.22;;;8.63
6550;BMP280;15142;48.888;9.134;2023-04-03T13:44:28;98849.81;;;8.60
6550;BMP280;15142;48.888;9.134;2023-04-03T13:46:59;98851.81;;;8.58
6550;BMP280;15142;48.888;9.134;2023-04-03T13:49:33;98850.91;;;8.64
6550;BMP280;15142;48.888;9.134;2023-04-03T13:52:26;98853.47;;;8.69
6550;BMP280;15142;48.888;9.134;2023-04-03T13:54:57;98840.94;;;8.41
6550;BMP280;15142;48.888;9.134;2023-04-03T13:57:26;98855.34;;;8.15
6550;BMP280;15142;48.888;9.134;2023-04-03T13:59:55;98846.06;;;8.25
6550;BMP280;15142;48.888;9.134;2023-04-03T14:02:30;98848.63;;;8.09
6550;BMP280;15142;48.888;9.134;2023-04-03T14:05:01;98846.06;;;8.25
6550;BMP280;15142;48.888;9.134;2023-04-03T14:07:36;98843.66;;;8.14
6550;BMP280;15142;48.888;9.134;2023-04-03T14:10:06;98850.25;;;8.15
6550;BMP280;15142;48.888;9.134;2023-04-03T14:12:36;98841.50;;;8.06
6550;BMP280;15142;48.888;9.134;2023-04-03T14:15:16;98839.13;;;8.21
6550;BMP280;15142;48.888;9.134;2023-04-03T14:17:45;98853.53;;;8.32
6550;BMP280;15142;48.888;9.134;2023-04-03T14:20:15;98849.56;;;8.40
6550;BMP280;15142;48.888;9.134;2023-04-03T14:22:48;98833.19;;;8.32
6550;BMP280;15142;48.888;9.134;2023-04-03T14:25:17;98837.41;;;8.42
6550;BMP280;15142;48.888;9.134;2023-04-03T14:27:48;98841.16;;;8.61
6550;BMP280;15142;48.888;9.134;2023-04-03T14:30:20;98837.63;;;8.62
6550;BMP280;15142;48.888;9.134;2023-04-03T14:32:49;98827.75;;;8.44
6550;BMP280;15142;48.888;9.134;2023-04-03T14:35:18;98836.59;;;8.21
6550;BMP280;15142;48.888;9.134;2023-04-03T14:37:51;98816.22;;;8.16
6550;BMP280;15142;48.888;9.134;2023-04-03T14:40:23;98827.78;;;8.07
6550;BMP280;15142;48.888;9.134;2023-04-03T14:42:52;98824.19;;;7.87
6550;BMP280;15142;48.888;9.134;2023-04-03T14:45:23;98828.25;;;7.88
6550;BMP280;15142;48.888;9.134;2023-04-03T14:47:54;98827.78;;;7.91
6550;BMP280;15142;48.888;9.134;2023-04-03T14:50:25;98817.84;;;7.89
6550;BMP280;15142;48.888;9.134;2023-04-03T14:52:58;98820.88;;;7.86
6550;BMP280;15142;48.888;9.134;2023-04-03T14:55:27;98818.19;;;7.76
6550;BMP280;15142;48.888;9.134;2023-04-03T14:57:56;98823.72;;;7.73
6550;BMP280;15142;48.888;9.134;2023-04-03T15:00:25;98816.84;;;7.58
6550;BMP280;15142;48.888;9.134;2023-04-03T15:02:53;98809.09;;;7.32
6550;BMP280;15142;48.888;9.134;2023-04-03T15:05:22;98812.63;;;7.14
6550;BMP280;15142;48.888;9.134;2023-04-03T15:07:53;98814.81;;;7.11
6550;BMP280;15142;48.888;9.134;2023-04-03T15:10:27;98806.84;;;7.35
6550;BMP280;15142;48.888;9.134;2023-04-03T15:12:57;98815.88;;;7.59
6550;BMP280;15142;48.888;9.134;2023-04-03T15:15:28;98812.38;;;7.97